sensor_id;sensor_type;location;lat;lon;timestamp;P1;durP1;ratioP1;P2;durP2;ratioP2
20855;SDS011;63058;49.424;8.420;2022-12-10T00:00:50;21.93;;;15.07;;
20855;SDS011;63058;49.424;8.420;2022-12-10T00:03:19;21.60;;;14.53;;
20855;SDS011;63058;49.424;8.420;2022-12-10T00:05:58;25.77;;;16.43;;
20855;SDS011;63058;49.424;8.420;2022-12-10T00:08:25;21.97;;;14.87;;
20855;SDS011;63058;49.424;8.420;2022-12-10T00:10:59;17.60;;;12.90;;
20855;SDS011;63058;49.424;8.420;2022-12-10T00:13:32;20.70;;;14.17;;
20855;SDS011;63058;49.424;8.420;2022-12-10T00:16:15;19.97;;;13.80;;
20855;SDS011;63058;49.424;8.420;2022-12-10T00:18:46;19.53;;;13.13;;
20855;SDS011;63058;49.424;8.420;2022-12-10T00:21:13;19.97;;;14.00;;
20855;SDS011;63058;49.424;8.420;2022-12-10T00:26:35;22.77;;;15.53;;
20855;SDS011;63058;49.424;8.420;2022-12-10T00:29:12;19.70;;;13.73;;
20855;SDS011;63058;49.424;8.420;2022-12-10T00:32:11;17.97;;;12.53;;
20855;SDS011;63058;49.424;8.420;2022-12-10T00:34:41;15.03;;;10.77;;
20855;SDS011;63058;49.424;8.420;2022-12-10T00:37:13;18.73;;;12.73;;
20855;SDS011;63058;49.424;8.420;2022-12-10T00:39:39;21.73;;;14.57;;
20855;SDS011;63058;49.424;8.420;2022-12-10T00:42:19;17.63;;;12.67;;
20855;SDS011;63058;49.424;8.420;2022-12-10T00:44:50;19.47;;;13.00;;
20855;SDS011;63058;49.424;8.420;2022-12-10T00:47:18;19.57;;;12.80;;
20855;SDS011;63058;49.424;8.420;2022-12-10T00:49:47;17.90;;;11.87;;
20855;SDS011;63058;49.424;8.420;2022-12-10T00:52:12;20.13;;;13.43;;
20855;SDS011;63058;49.424;8.420;2022-12-10T00:54:53;20.63;;;14.20;;
20855;SDS011;63058;49.424;8.420;2022-12-10T00:57:32;21.33;;;15.07;;
20855;SDS011;63058;49.424;8.420;2022-12-10T01:00:08;20.27;;;13.40;;
20855;SDS011;63058;49.424;8.420;2022-12-10T01:02:44;18.40;;;12.97;;
20855;SDS011;63058;49.424;8.420;2022-12-10T01:05:18;21.07;;;13.53;;
20855;SDS011;63058;49.424;8.420;2022-12-10T01:07:49;21.17;;;13.67;;
20855;SDS011;63058;49.424;8.420;2022-12-10T01:10:22;19.50;;;13.27;;
20855;SDS011;63058;49.424;8.420;2022-12-10T01:12:51;17.50;;;12.37;;
20855;SDS011;63058;49.424;8.420;2022-12-10T01:15:18;19.97;;;13.73;;
20855;SDS011;63058;49.424;8.420;2022-12-10T01:17:43;18.93;;;13.33;;
20855;SDS011;63058;49.424;8.420;2022-12-10T01:20:11;19.13;;;13.00;;
20855;SDS011;63058;49.424;8.420;2022-12-10T01:22:39;19.50;;;12.57;;
20855;SDS011;63058;49.424;8.420;2022-12-10T01:25:04;19.97;;;13.90;;
20855;SDS011;63058;49.424;8.420;2022-12-10T01:27:33;20.57;;;14.57;;
20855;SDS011;63058;49.424;8.420;2022-12-10T01:30:02;19.43;;;14.10;;
20855;SDS011;63058;49.424;8.420;2022-12-10T01:32:31;18.17;;;12.77;;
20855;SDS011;63058;49.424;8.420;2022-12-10T01:34:58;17.57;;;12.43;;
20855;SDS011;63058;49.424;8.420;2022-12-10T01:37:25;19.23;;;12.00;;
20855;SDS011;63058;49.424;8.420;2022-12-10T01:39:53;18.33;;;12.93;;
20855;SDS011;63058;49.424;8.420;2022-12-10T01:42:24;18.87;;;12.53;;
20855;SDS011;63058;49.424;8.420;2022-12-10T01:44:57;17.60;;;12.33;;
20855;SDS011;63058;49.424;8.420;2022-12-10T01:47:24;24.03;;;15.43;;
20855;SDS011;63058;49.424;8.420;2022-12-10T01:49:59;22.97;;;14.37;;
20855;SDS011;63058;49.424;8.420;2022-12-10T01:52:30;21.60;;;14.80;;
20855;SDS011;63058;49.424;8.420;2022-12-10T01:54:56;19.57;;;13.33;;
20855;SDS011;63058;49.424;8.420;2022-12-10T01:57:23;18.10;;;12.67;;
20855;SDS011;63058;49.424;8.420;2022-12-10T02:00:11;19.50;;;13.23;;
20855;SDS011;63058;49.424;8.420;2022-12-10T02:08:41;20.43;;;13.50;;
20855;SDS011;63058;49.424;8.420;2022-12-10T02:11:29;24.73;;;16.80;;
20855;SDS011;63058;49.424;8.420;2022-12-10T02:16:57;28.27;;;18.47;;
20855;SDS011;63058;49.424;8.420;2022-12-10T02:22:34;23.07;;;15.00;;
20855;SDS011;63058;49.424;8.420;2022-12-10T02:25:46;23.80;;;15.67;;
20855;SDS011;63058;49.424;8.420;2022-12-10T02:31:18;23.57;;;15.87;;
20855;SDS011;63058;49.424;8.420;2022-12-10T02:33:49;21.37;;;14.77;;
20855;SDS011;63058;49.424;8.420;2022-12-10T02:36:25;21.57;;;14.80;;
20855;SDS011;63058;49.424;8.420;2022-12-10T02:39:00;24.20;;;16.50;;
20855;SDS011;63058;49.424;8.420;2022-12-10T02:41:40;23.90;;;16.80;;
20855;SDS011;63058;49.424;8.420;2022-12-10T02:44:11;24.70;;;16.20;;
20855;SDS011;63058;49.424;8.420;2022-12-10T02:46:42;24.70;;;16.17;;
20855;SDS011;63058;49.424;8.420;2022-12-10T02:49:14;23.97;;;15.33;;
20855;SDS011;63058;49.424;8.420;2022-12-10T02:51:49;21.70;;;14.37;;
20855;SDS011;63058;49.424;8.420;2022-12-10T02:54:39;22.10;;;14.37;;
20855;SDS011;63058;49.424;8.420;2022-12-10T02:57:10;26.80;;;17.23;;
20855;SDS011;63058;49.424;8.420;2022-12-10T03:00:00;28.77;;;19.07;;
20855;SDS011;63058;49.424;8.420;2022-12-10T03:05:19;22.60;;;15.47;;
20855;SDS011;63058;49.424;8.420;2022-12-10T03:08:08;25.00;;;16.73;;
20855;SDS011;63058;49.424;8.420;2022-12-10T03:11:13;23.80;;;15.93;;
20855;SDS011;63058;49.424;8.420;2022-12-10T03:16:14;22.03;;;15.07;;
20855;SDS011;63058;49.424;8.420;2022-12-10T03:18:46;21.47;;;14.70;;
20855;SDS011;63058;49.424;8.420;2022-12-10T03:21:16;25.33;;;16.43;;
20855;SDS011;63058;49.424;8.420;2022-12-10T03:23:50;22.47;;;14.90;;
20855;SDS011;63058;49.424;8.420;2022-12-10T03:26:18;23.43;;;15.63;;
20855;SDS011;63058;49.424;8.420;2022-12-10T03:28:50;22.23;;;13.80;;
20855;SDS011;63058;49.424;8.420;2022-12-10T03:31:40;23.67;;;15.77;;
20855;SDS011;63058;49.424;8.420;2022-12-10T03:34:07;29.00;;;18.80;;
20855;SDS011;63058;49.424;8.420;2022-12-10T03:36:47;23.07;;;15.00;;
20855;SDS011;63058;49.424;8.420;2022-12-10T03:39:18;33.03;;;21.33;;
20855;SDS011;63058;49.424;8.420;2022-12-10T03:41:48;31.80;;;20.43;;
20855;SDS011;63058;49.424;8.420;2022-12-10T03:44:32;24.93;;;16.80;;
20855;SDS011;63058;49.424;8.420;2022-12-10T03:47:10;25.43;;;16.97;;
20855;SDS011;63058;49.424;8.420;2022-12-10T03:49:39;30.33;;;19.23;;
20855;SDS011;63058;49.424;8.420;2022-12-10T03:54:53;25.50;;;16.00;;
20855;SDS011;63058;49.424;8.420;2022-12-10T03:57:25;22.27;;;14.77;;
20855;SDS011;63058;49.424;8.420;2022-12-10T03:59:55;19.97;;;13.97;;
20855;SDS011;63058;49.424;8.420;2022-12-10T04:02:26;22.67;;;15.87;;
20855;SDS011;63058;49.424;8.420;2022-12-10T04:04:56;28.03;;;18.53;;
20855;SDS011;63058;49.424;8.420;2022-12-10T04:07:23;27.50;;;17.80;;
20855;SDS011;63058;49.424;8.420;2022-12-10T04:09:49;26.77;;;16.83;;
20855;SDS011;63058;49.424;8.420;2022-12-10T04:12:24;27.30;;;17.77;;
20855;SDS011;63058;49.424;8.420;2022-12-10T04:14:53;26.03;;;17.70;;
20855;SDS011;63058;49.424;8.420;2022-12-10T04:17:49;28.77;;;18.27;;
20855;SDS011;63058;49.424;8.420;2022-12-10T04:20:18;23.43;;;14.73;;
20855;SDS011;63058;49.424;8.420;2022-12-10T04:23:02;27.87;;;18.50;;
20855;SDS011;63058;49.424;8.420;2022-12-10T04:25:46;36.07;;;22.80;;
20855;SDS011;63058;49.424;8.420;2022-12-10T04:28:34;33.50;;;21.63;;
20855;SDS011;63058;49.424;8.420;2022-12-10T04:30:59;29.13;;;19.33;;
20855;SDS011;63058;49.424;8.420;2022-12-10T04:33:44;34.60;;;21.50;;
20855;SDS011;63058;49.424;8.420;2022-12-10T04:36:19;27.13;;;17.53;;
20855;SDS011;63058;49.424;8.420;2022-12-10T04:38:51;33.07;;;20.83;;
20855;SDS011;63058;49.424;8.420;2022-12-10T04:41:25;27.97;;;17.93;;
20855;SDS011;63058;49.424;8.420;2022-12-10T04:43:55;25.70;;;16.73;;
20855;SDS011;63058;49.424;8.420;2022-12-10T04:46:24;25.60;;;16.43;;
20855;SDS011;63058;49.424;8.420;2022-12-10T04:48:54;24.37;;;15.33;;
20855;SDS011;63058;49.424;8.420;2022-12-10T04:51:19;20.67;;;13.73;;
20855;SDS011;63058;49.424;8.420;2022-12-10T04:53:52;22.53;;;14.90;;
20855;SDS011;63058;49.424;8.420;2022-12-10T04:56:25;23.17;;;14.37;;
20855;SDS011;63058;49.424;8.420;2022-12-10T04:58:54;22.37;;;15.30;;
20855;SDS011;63058;49.424;8.420;2022-12-10T05:01:24;22.03;;;13.60;;
20855;SDS011;63058;49.424;8.420;2022-12-10T05:03:50;23.37;;;15.77;;
20855;SDS011;63058;49.424;8.420;2022-12-10T05:06:19;26.87;;;17.80;;
20855;SDS011;63058;49.424;8.420;2022-12-10T05:08:47;25.33;;;16.90;;
20855;SDS011;63058;49.424;8.420;2022-12-10T05:11:17;28.57;;;17.93;;
20855;SDS011;63058;49.424;8.420;2022-12-10T05:13:45;25.13;;;16.03;;
20855;SDS011;63058;49.424;8.420;2022-12-10T05:16:12;24.30;;;15.60;;
20855;SDS011;63058;49.424;8.420;2022-12-10T05:18:42;30.63;;;18.90;;
20855;SDS011;63058;49.424;8.420;2022-12-10T05:21:09;24.43;;;16.07;;
20855;SDS011;63058;49.424;8.420;2022-12-10T05:23:41;36.07;;;23.50;;
20855;SDS011;63058;49.424;8.420;2022-12-10T05:26:10;27.13;;;17.63;;
20855;SDS011;63058;49.424;8.420;2022-12-10T05:28:48;25.77;;;16.40;;
20855;SDS011;63058;49.424;8.420;2022-12-10T05:31:29;22.40;;;15.50;;
20855;SDS011;63058;49.424;8.420;2022-12-10T05:33:58;22.17;;;14.23;;
20855;SDS011;63058;49.424;8.420;2022-12-10T05:36:24;21.17;;;14.83;;
20855;SDS011;63058;49.424;8.420;2022-12-10T05:38:53;23.77;;;15.00;;
20855;SDS011;63058;49.424;8.420;2022-12-10T05:41:21;35.03;;;21.37;;
20855;SDS011;63058;49.424;8.420;2022-12-10T05:43:53;31.43;;;20.37;;
20855;SDS011;63058;49.424;8.420;2022-12-10T05:46:33;26.97;;;17.50;;
20855;SDS011;63058;49.424;8.420;2022-12-10T05:49:03;24.03;;;16.03;;
20855;SDS011;63058;49.424;8.420;2022-12-10T05:51:30;26.60;;;16.97;;
20855;SDS011;63058;49.424;8.420;2022-12-10T05:53:57;25.00;;;16.80;;
20855;SDS011;63058;49.424;8.420;2022-12-10T05:56:38;24.90;;;14.13;;
20855;SDS011;63058;49.424;8.420;2022-12-10T05:59:18;25.93;;;16.83;;
20855;SDS011;63058;49.424;8.420;2022-12-10T06:01:45;24.73;;;16.13;;
20855;SDS011;63058;49.424;8.420;2022-12-10T06:04:11;23.20;;;16.07;;
20855;SDS011;63058;49.424;8.420;2022-12-10T06:06:50;22.10;;;14.83;;
20855;SDS011;63058;49.424;8.420;2022-12-10T06:09:22;22.23;;;15.67;;
20855;SDS011;63058;49.424;8.420;2022-12-10T06:11:58;26.17;;;16.17;;
20855;SDS011;63058;49.424;8.420;2022-12-10T06:14:30;21.63;;;14.13;;
20855;SDS011;63058;49.424;8.420;2022-12-10T06:17:12;22.53;;;14.80;;
20855;SDS011;63058;49.424;8.420;2022-12-10T06:19:40;23.83;;;16.10;;
20855;SDS011;63058;49.424;8.420;2022-12-10T06:22:07;25.87;;;17.33;;
20855;SDS011;63058;49.424;8.420;2022-12-10T06:24:33;30.53;;;19.80;;
20855;SDS011;63058;49.424;8.420;2022-12-10T06:27:11;28.80;;;18.17;;
20855;SDS011;63058;49.424;8.420;2022-12-10T06:29:44;26.47;;;16.10;;
20855;SDS011;63058;49.424;8.420;2022-12-10T06:32:14;26.07;;;16.53;;
20855;SDS011;63058;49.424;8.420;2022-12-10T06:34:41;24.30;;;16.90;;
20855;SDS011;63058;49.424;8.420;2022-12-10T06:37:09;24.63;;;16.27;;
20855;SDS011;63058;49.424;8.420;2022-12-10T06:39:45;22.50;;;15.20;;
20855;SDS011;63058;49.424;8.420;2022-12-10T06:42:19;25.00;;;15.83;;
20855;SDS011;63058;49.424;8.420;2022-12-10T06:44:48;25.07;;;16.30;;
20855;SDS011;63058;49.424;8.420;2022-12-10T06:47:14;27.10;;;18.20;;
20855;SDS011;63058;49.424;8.420;2022-12-10T06:49:43;22.37;;;16.00;;
20855;SDS011;63058;49.424;8.420;2022-12-10T06:52:10;21.83;;;13.87;;
20855;SDS011;63058;49.424;8.420;2022-12-10T06:55:24;20.43;;;12.93;;
20855;SDS011;63058;49.424;8.420;2022-12-10T06:57:53;21.83;;;15.00;;
20855;SDS011;63058;49.424;8.420;2022-12-10T07:03:16;24.27;;;14.77;;
20855;SDS011;63058;49.424;8.420;2022-12-10T07:05:50;20.80;;;14.00;;
20855;SDS011;63058;49.424;8.420;2022-12-10T07:15:38;17.77;;;11.50;;
20855;SDS011;63058;49.424;8.420;2022-12-10T07:25:05;20.67;;;13.27;;
20855;SDS011;63058;49.424;8.420;2022-12-10T07:28:01;23.17;;;15.87;;
20855;SDS011;63058;49.424;8.420;2022-12-10T07:37:41;21.57;;;15.03;;
20855;SDS011;63058;49.424;8.420;2022-12-10T07:43:41;17.63;;;12.10;;
20855;SDS011;63058;49.424;8.420;2022-12-10T07:49:35;18.97;;;13.40;;
20855;SDS011;63058;49.424;8.420;2022-12-10T07:56:03;17.53;;;12.40;;
20855;SDS011;63058;49.424;8.420;2022-12-10T08:01:24;20.53;;;13.57;;
20855;SDS011;63058;49.424;8.420;2022-12-10T08:04:18;20.43;;;13.97;;
20855;SDS011;63058;49.424;8.420;2022-12-10T08:06:46;19.87;;;14.03;;
20855;SDS011;63058;49.424;8.420;2022-12-10T08:13:22;20.00;;;13.17;;
20855;SDS011;63058;49.424;8.420;2022-12-10T08:15:53;19.60;;;14.00;;
20855;SDS011;63058;49.424;8.420;2022-12-10T08:18:29;20.17;;;13.80;;
20855;SDS011;63058;49.424;8.420;2022-12-10T08:20:55;16.47;;;12.07;;
20855;SDS011;63058;49.424;8.420;2022-12-10T08:23:21;19.90;;;14.20;;
20855;SDS011;63058;49.424;8.420;2022-12-10T08:25:47;21.80;;;15.17;;
20855;SDS011;63058;49.424;8.420;2022-12-10T08:28:13;21.00;;;15.00;;
20855;SDS011;63058;49.424;8.420;2022-12-10T08:30:38;18.57;;;12.80;;
20855;SDS011;63058;49.424;8.420;2022-12-10T08:33:25;17.87;;;12.63;;
20855;SDS011;63058;49.424;8.420;2022-12-10T08:35:58;18.50;;;13.50;;
20855;SDS011;63058;49.424;8.420;2022-12-10T08:38:28;21.23;;;14.17;;
20855;SDS011;63058;49.424;8.420;2022-12-10T08:40:58;24.17;;;15.97;;
20855;SDS011;63058;49.424;8.420;2022-12-10T08:43:32;21.20;;;14.60;;
20855;SDS011;63058;49.424;8.420;2022-12-10T08:46:20;22.17;;;15.03;;
20855;SDS011;63058;49.424;8.420;2022-12-10T08:48:56;18.57;;;12.93;;
20855;SDS011;63058;49.424;8.420;2022-12-10T08:51:26;20.37;;;11.53;;
20855;SDS011;63058;49.424;8.420;2022-12-10T08:53:58;20.53;;;13.33;;
20855;SDS011;63058;49.424;8.420;2022-12-10T08:56:31;19.83;;;13.63;;
20855;SDS011;63058;49.424;8.420;2022-12-10T08:58:58;17.73;;;12.37;;
20855;SDS011;63058;49.424;8.420;2022-12-10T09:01:25;17.47;;;12.83;;
20855;SDS011;63058;49.424;8.420;2022-12-10T09:04:02;21.73;;;15.03;;
20855;SDS011;63058;49.424;8.420;2022-12-10T09:06:32;21.77;;;15.30;;
20855;SDS011;63058;49.424;8.420;2022-12-10T09:09:01;18.63;;;13.83;;
20855;SDS011;63058;49.424;8.420;2022-12-10T09:11:33;19.17;;;12.90;;
20855;SDS011;63058;49.424;8.420;2022-12-10T09:14:09;22.13;;;14.70;;
20855;SDS011;63058;49.424;8.420;2022-12-10T09:16:38;17.50;;;13.33;;
20855;SDS011;63058;49.424;8.420;2022-12-10T09:19:22;18.97;;;13.83;;
20855;SDS011;63058;49.424;8.420;2022-12-10T09:21:51;15.03;;;11.27;;
20855;SDS011;63058;49.424;8.420;2022-12-10T09:24:20;19.07;;;13.43;;
20855;SDS011;63058;49.424;8.420;2022-12-10T09:26:47;17.93;;;12.47;;
20855;SDS011;63058;49.424;8.420;2022-12-10T09:29:22;15.90;;;11.47;;
20855;SDS011;63058;49.424;8.420;2022-12-10T09:31:58;14.27;;;10.63;;
20855;SDS011;63058;49.424;8.420;2022-12-10T09:34:24;22.47;;;15.43;;
20855;SDS011;63058;49.424;8.420;2022-12-10T09:36:53;19.23;;;14.30;;
20855;SDS011;63058;49.424;8.420;2022-12-10T09:39:24;20.17;;;14.50;;
20855;SDS011;63058;49.424;8.420;2022-12-10T09:47:30;19.13;;;14.13;;
20855;SDS011;63058;49.424;8.420;2022-12-10T09:50:23;14.57;;;11.63;;
20855;SDS011;63058;49.424;8.420;2022-12-10T09:52:56;17.73;;;12.23;;
20855;SDS011;63058;49.424;8.420;2022-12-10T09:55:37;18.23;;;14.60;;
20855;SDS011;63058;49.424;8.420;2022-12-10T09:58:20;17.63;;;13.40;;
20855;SDS011;63058;49.424;8.420;2022-12-10T10:00:58;17.23;;;12.17;;
20855;SDS011;63058;49.424;8.420;2022-12-10T10:03:32;17.57;;;13.07;;
20855;SDS011;63058;49.424;8.420;2022-12-10T10:06:08;14.80;;;11.27;;
20855;SDS011;63058;49.424;8.420;2022-12-10T10:08:53;15.17;;;11.03;;
20855;SDS011;63058;49.424;8.420;2022-12-10T10:11:33;13.97;;;10.13;;
20855;SDS011;63058;49.424;8.420;2022-12-10T10:14:13;14.53;;;9.93;;
20855;SDS011;63058;49.424;8.420;2022-12-10T10:16:54;14.67;;;10.83;;
20855;SDS011;63058;49.424;8.420;2022-12-10T10:19:30;15.23;;;10.57;;
20855;SDS011;63058;49.424;8.420;2022-12-10T10:22:02;14.23;;;10.80;;
20855;SDS011;63058;49.424;8.420;2022-12-10T10:24:43;14.50;;;10.97;;
20855;SDS011;63058;49.424;8.420;2022-12-10T10:27:21;11.87;;;8.80;;
20855;SDS011;63058;49.424;8.420;2022-12-10T10:29:57;12.43;;;9.67;;
20855;SDS011;63058;49.424;8.420;2022-12-10T10:35:41;12.87;;;9.10;;
20855;SDS011;63058;49.424;8.420;2022-12-10T10:38:14;14.20;;;11.17;;
20855;SDS011;63058;49.424;8.420;2022-12-10T10:40:54;16.37;;;12.03;;
20855;SDS011;63058;49.424;8.420;2022-12-10T10:43:31;15.10;;;10.30;;
20855;SDS011;63058;49.424;8.420;2022-12-10T10:46:24;14.87;;;10.77;;
20855;SDS011;63058;49.424;8.420;2022-12-10T10:49:11;12.73;;;9.93;;
20855;SDS011;63058;49.424;8.420;2022-12-10T10:51:50;15.23;;;11.10;;
20855;SDS011;63058;49.424;8.420;2022-12-10T11:00:01;12.93;;;9.53;;
20855;SDS011;63058;49.424;8.420;2022-12-10T11:02:52;12.90;;;10.07;;
20855;SDS011;63058;49.424;8.420;2022-12-10T11:08:04;13.40;;;9.70;;
20855;SDS011;63058;49.424;8.420;2022-12-10T11:10:40;13.07;;;10.03;;
20855;SDS011;63058;49.424;8.420;2022-12-10T11:13:27;15.67;;;11.50;;
20855;SDS011;63058;49.424;8.420;2022-12-10T11:18:56;14.30;;;10.73;;
20855;SDS011;63058;49.424;8.420;2022-12-10T11:21:34;12.60;;;9.47;;
20855;SDS011;63058;49.424;8.420;2022-12-10T11:24:30;16.87;;;12.87;;
20855;SDS011;63058;49.424;8.420;2022-12-10T11:30:02;15.20;;;11.00;;
20855;SDS011;63058;49.424;8.420;2022-12-10T11:33:00;16.90;;;11.63;;
20855;SDS011;63058;49.424;8.420;2022-12-10T11:36:04;12.50;;;9.67;;
20855;SDS011;63058;49.424;8.420;2022-12-10T11:51:13;11.50;;;9.50;;
20855;SDS011;63058;49.424;8.420;2022-12-10T11:57:18;13.00;;;10.18;;
20855;SDS011;63058;49.424;8.420;2022-12-10T11:59:29;13.45;;;10.55;;
20855;SDS011;63058;49.424;8.420;2022-12-10T12:02:15;14.10;;;10.55;;
20855;SDS011;63058;49.424;8.420;2022-12-10T12:19:49;13.87;;;11.00;;
20855;SDS011;63058;49.424;8.420;2022-12-10T12:22:26;11.33;;;9.00;;
20855;SDS011;63058;49.424;8.420;2022-12-10T12:29:09;14.17;;;11.57;;
20855;SDS011;63058;49.424;8.420;2022-12-10T12:37:59;9.40;;;7.70;;
20855;SDS011;63058;49.424;8.420;2022-12-10T12:41:10;10.63;;;8.53;;
20855;SDS011;63058;49.424;8.420;2022-12-10T12:47:41;14.50;;;11.17;;
20855;SDS011;63058;49.424;8.420;2022-12-10T12:52:59;12.80;;;9.80;;
20855;SDS011;63058;49.424;8.420;2022-12-10T13:04:59;16.70;;;11.50;;
20855;SDS011;63058;49.424;8.420;2022-12-10T13:07:33;13.53;;;9.90;;
20855;SDS011;63058;49.424;8.420;2022-12-10T13:12:45;12.27;;;9.17;;
20855;SDS011;63058;49.424;8.420;2022-12-10T13:20:51;15.97;;;11.60;;
20855;SDS011;63058;49.424;8.420;2022-12-10T13:23:50;12.47;;;9.23;;
20855;SDS011;63058;49.424;8.420;2022-12-10T13:26:29;14.50;;;10.63;;
20855;SDS011;63058;49.424;8.420;2022-12-10T13:38:23;15.63;;;11.07;;
20855;SDS011;63058;49.424;8.420;2022-12-10T13:40:58;12.20;;;10.00;;
20855;SDS011;63058;49.424;8.420;2022-12-10T13:50:15;14.70;;;11.23;;
20855;SDS011;63058;49.424;8.420;2022-12-10T13:53:13;13.93;;;9.40;;
20855;SDS011;63058;49.424;8.420;2022-12-10T13:56:03;15.40;;;11.43;;
20855;SDS011;63058;49.424;8.420;2022-12-10T13:59:13;14.00;;;10.17;;
20855;SDS011;63058;49.424;8.420;2022-12-10T14:07:37;11.37;;;8.43;;
20855;SDS011;63058;49.424;8.420;2022-12-10T14:10:08;12.50;;;8.93;;
20855;SDS011;63058;49.424;8.420;2022-12-10T14:12:49;12.97;;;9.47;;
20855;SDS011;63058;49.424;8.420;2022-12-10T14:15:25;12.00;;;9.30;;
20855;SDS011;63058;49.424;8.420;2022-12-10T14:18:15;13.00;;;9.83;;
20855;SDS011;63058;49.424;8.420;2022-12-10T14:20:44;16.40;;;11.53;;
20855;SDS011;63058;49.424;8.420;2022-12-10T14:23:25;15.20;;;12.00;;
20855;SDS011;63058;49.424;8.420;2022-12-10T14:26:05;13.60;;;10.53;;
20855;SDS011;63058;49.424;8.420;2022-12-10T14:29:08;14.53;;;10.43;;
20855;SDS011;63058;49.424;8.420;2022-12-10T14:32:18;13.27;;;10.20;;
20855;SDS011;63058;49.424;8.420;2022-12-10T14:35:24;12.37;;;9.37;;
20855;SDS011;63058;49.424;8.420;2022-12-10T14:38:17;10.43;;;7.60;;
20855;SDS011;63058;49.424;8.420;2022-12-10T14:41:37;12.27;;;9.13;;
20855;SDS011;63058;49.424;8.420;2022-12-10T14:44:25;12.43;;;9.07;;
20855;SDS011;63058;49.424;8.420;2022-12-10T14:47:02;14.23;;;10.53;;
20855;SDS011;63058;49.424;8.420;2022-12-10T14:49:42;10.93;;;8.63;;
20855;SDS011;63058;49.424;8.420;2022-12-10T14:55:49;10.80;;;8.70;;
20855;SDS011;63058;49.424;8.420;2022-12-10T14:58:39;11.37;;;8.27;;
20855;SDS011;63058;49.424;8.420;2022-12-10T15:04:17;12.20;;;8.57;;
20855;SDS011;63058;49.424;8.420;2022-12-10T15:10:20;11.37;;;8.43;;
20855;SDS011;63058;49.424;8.420;2022-12-10T15:19:30;15.47;;;10.47;;
20855;SDS011;63058;49.424;8.420;2022-12-10T15:22:19;12.20;;;8.97;;
20855;SDS011;63058;49.424;8.420;2022-12-10T15:24:57;12.03;;;8.73;;
20855;SDS011;63058;49.424;8.420;2022-12-10T15:27:32;11.70;;;8.40;;
20855;SDS011;63058;49.424;8.420;2022-12-10T15:30:20;11.50;;;8.30;;
20855;SDS011;63058;49.424;8.420;2022-12-10T15:32:52;11.50;;;9.00;;
20855;SDS011;63058;49.424;8.420;2022-12-10T15:35:38;11.80;;;8.67;;
20855;SDS011;63058;49.424;8.420;2022-12-10T15:38:13;11.13;;;8.13;;
20855;SDS011;63058;49.424;8.420;2022-12-10T15:40:46;14.03;;;9.07;;
20855;SDS011;63058;49.424;8.420;2022-12-10T15:44:06;14.53;;;9.10;;
20855;SDS011;63058;49.424;8.420;2022-12-10T15:47:08;11.63;;;8.57;;
20855;SDS011;63058;49.424;8.420;2022-12-10T15:49:46;12.60;;;8.63;;
20855;SDS011;63058;49.424;8.420;2022-12-10T15:52:29;13.23;;;9.53;;
20855;SDS011;63058;49.424;8.420;2022-12-10T15:55:03;11.83;;;8.63;;
20855;SDS011;63058;49.424;8.420;2022-12-10T15:57:39;12.27;;;8.83;;
20855;SDS011;63058;49.424;8.420;2022-12-10T16:00:23;13.57;;;9.90;;
20855;SDS011;63058;49.424;8.420;2022-12-10T16:03:02;11.07;;;8.50;;
20855;SDS011;63058;49.424;8.420;2022-12-10T16:05:31;11.20;;;8.10;;
20855;SDS011;63058;49.424;8.420;2022-12-10T16:10:52;13.10;;;9.30;;
20855;SDS011;63058;49.424;8.420;2022-12-10T16:13:35;12.73;;;9.03;;
20855;SDS011;63058;49.424;8.420;2022-12-10T16:16:14;11.83;;;8.83;;
20855;SDS011;63058;49.424;8.420;2022-12-10T16:19:12;9.93;;;7.70;;
20855;SDS011;63058;49.424;8.420;2022-12-10T16:21:42;11.50;;;8.63;;
20855;SDS011;63058;49.424;8.420;2022-12-10T16:24:16;13.40;;;8.97;;
20855;SDS011;63058;49.424;8.420;2022-12-10T16:26:43;12.30;;;9.07;;
20855;SDS011;63058;49.424;8.420;2022-12-10T16:29:09;12.70;;;9.47;;
20855;SDS011;63058;49.424;8.420;2022-12-10T16:31:40;15.00;;;10.57;;
20855;SDS011;63058;49.424;8.420;2022-12-10T16:34:10;14.10;;;10.17;;
20855;SDS011;63058;49.424;8.420;2022-12-10T16:36:40;15.73;;;10.87;;
20855;SDS011;63058;49.424;8.420;2022-12-10T16:39:12;12.53;;;8.87;;
20855;SDS011;63058;49.424;8.420;2022-12-10T16:41:53;15.27;;;10.70;;
20855;SDS011;63058;49.424;8.420;2022-12-10T16:44:36;16.10;;;10.90;;
20855;SDS011;63058;49.424;8.420;2022-12-10T16:47:11;13.43;;;9.50;;
20855;SDS011;63058;49.424;8.420;2022-12-10T16:50:02;14.50;;;10.10;;
20855;SDS011;63058;49.424;8.420;2022-12-10T16:52:32;13.53;;;9.70;;
20855;SDS011;63058;49.424;8.420;2022-12-10T16:55:19;16.90;;;10.50;;
20855;SDS011;63058;49.424;8.420;2022-12-10T16:57:50;14.53;;;10.10;;
20855;SDS011;63058;49.424;8.420;2022-12-10T17:00:38;14.10;;;9.80;;
20855;SDS011;63058;49.424;8.420;2022-12-10T17:03:30;14.40;;;9.73;;
20855;SDS011;63058;49.424;8.420;2022-12-10T17:06:00;14.27;;;9.57;;
20855;SDS011;63058;49.424;8.420;2022-12-10T17:08:43;13.80;;;9.60;;
20855;SDS011;63058;49.424;8.420;2022-12-10T17:17:00;13.13;;;8.73;;
20855;SDS011;63058;49.424;8.420;2022-12-10T17:19:33;13.20;;;9.47;;
20855;SDS011;63058;49.424;8.420;2022-12-10T17:22:06;11.80;;;8.50;;
20855;SDS011;63058;49.424;8.420;2022-12-10T17:24:52;12.23;;;8.23;;
20855;SDS011;63058;49.424;8.420;2022-12-10T17:27:27;12.07;;;8.50;;
20855;SDS011;63058;49.424;8.420;2022-12-10T17:30:16;14.23;;;9.97;;
20855;SDS011;63058;49.424;8.420;2022-12-10T17:32:51;14.90;;;9.43;;
20855;SDS011;63058;49.424;8.420;2022-12-10T17:35:23;13.77;;;9.30;;
20855;SDS011;63058;49.424;8.420;2022-12-10T17:38:00;13.07;;;8.83;;
20855;SDS011;63058;49.424;8.420;2022-12-10T17:40:42;12.00;;;8.83;;
20855;SDS011;63058;49.424;8.420;2022-12-10T17:43:08;12.63;;;8.77;;
20855;SDS011;63058;49.424;8.420;2022-12-10T17:45:49;10.63;;;7.47;;
20855;SDS011;63058;49.424;8.420;2022-12-10T17:48:16;11.70;;;8.97;;
20855;SDS011;63058;49.424;8.420;2022-12-10T17:50:53;14.37;;;9.20;;
20855;SDS011;63058;49.424;8.420;2022-12-10T17:53:29;12.13;;;8.77;;
20855;SDS011;63058;49.424;8.420;2022-12-10T17:56:02;14.10;;;9.50;;
20855;SDS011;63058;49.424;8.420;2022-12-10T17:58:36;16.93;;;11.33;;
20855;SDS011;63058;49.424;8.420;2022-12-10T18:01:09;19.43;;;12.47;;
20855;SDS011;63058;49.424;8.420;2022-12-10T18:03:38;19.27;;;12.80;;
20855;SDS011;63058;49.424;8.420;2022-12-10T18:08:55;16.37;;;10.97;;
20855;SDS011;63058;49.424;8.420;2022-12-10T18:11:26;16.20;;;10.97;;
20855;SDS011;63058;49.424;8.420;2022-12-10T18:14:04;15.70;;;11.17;;
20855;SDS011;63058;49.424;8.420;2022-12-10T18:16:32;15.03;;;10.50;;
20855;SDS011;63058;49.424;8.420;2022-12-10T18:19:09;17.47;;;10.30;;
20855;SDS011;63058;49.424;8.420;2022-12-10T18:21:59;14.37;;;9.30;;
20855;SDS011;63058;49.424;8.420;2022-12-10T18:24:45;15.13;;;9.90;;
20855;SDS011;63058;49.424;8.420;2022-12-10T18:27:36;14.60;;;10.13;;
20855;SDS011;63058;49.424;8.420;2022-12-10T18:30:17;14.03;;;10.33;;
20855;SDS011;63058;49.424;8.420;2022-12-10T18:32:54;16.37;;;9.93;;
20855;SDS011;63058;49.424;8.420;2022-12-10T18:35:37;15.80;;;11.07;;
20855;SDS011;63058;49.424;8.420;2022-12-10T18:38:13;16.03;;;10.23;;
20855;SDS011;63058;49.424;8.420;2022-12-10T18:40:48;16.13;;;10.63;;